In Rescue
 
Open Full Screen Window  High Contrast Mode
Wind Gusting 17 knots
13
October 25, 2021 2:58 PM CDT
Weather Information
Wind Direction
  130 °
Wind Speed
  13 kt (15 mph)
Wind Gust
  17 kt (20 mph)
Altimeter
30.06 in
Visibility
10 SM
Temperature
11° C
52° F
Dewpoint
00° C
32° F
Humidity
47%
1hr Rain Fall
00.00 in.
24hr Rain Fall
00.00 in.
Sky Condition
Clear
VFR

METAR KFFM 251958Z AUTO 13013G17KT 10SM CLR 11/00 A3006 RMK AO2

FAA Disclaimer: The data displayed is for advisory purposes only and is not to be used for flight planning or operations.